createdAt,value
2018-07-02T00:00:26.244Z,2.37
2018-07-02T00:02:55.288Z,2.27
2018-07-02T00:05:31.071Z,2.50
2018-07-02T00:08:00.084Z,2.23
2018-07-02T00:10:29.129Z,2.37
2018-07-02T00:12:58.148Z,2.40
2018-07-02T00:15:27.527Z,2.43
2018-07-02T00:17:56.560Z,1.93
2018-07-02T00:20:25.587Z,2.43
2018-07-02T00:22:54.609Z,2.10
2018-07-02T00:25:23.631Z,1.93
2018-07-02T00:27:52.656Z,2.23
2018-07-02T00:30:21.696Z,2.70
2018-07-02T00:32:50.395Z,1.90
2018-07-02T00:35:19.327Z,2.10
2018-07-02T00:37:48.339Z,1.90
2018-07-02T00:40:17.606Z,1.87
2018-07-02T00:42:46.692Z,2.10
2018-07-02T00:45:15.434Z,2.50
2018-07-02T00:47:44.366Z,1.80
2018-07-02T00:50:13.751Z,2.27
2018-07-02T00:55:18.016Z,1.97
2018-07-02T00:57:47.079Z,1.97
2018-07-02T01:00:16.758Z,1.97
2018-07-02T01:02:45.699Z,1.80
2018-07-02T01:05:15.010Z,1.87
2018-07-02T01:07:44.723Z,1.93
2018-07-02T01:10:14.123Z,2.40
2018-07-02T01:12:43.215Z,1.90
2018-07-02T01:15:12.261Z,2.37
2018-07-02T01:17:41.290Z,2.10
2018-07-02T01:20:10.305Z,2.37
2018-07-02T01:22:39.311Z,2.27
2018-07-02T01:25:08.326Z,1.60
2018-07-02T01:27:37.672Z,2.20
2018-07-02T01:30:06.515Z,2.00
2018-07-02T01:32:35.443Z,2.10
2018-07-02T01:35:04.522Z,2.43
2018-07-02T01:37:33.567Z,1.73
2018-07-02T01:40:02.577Z,2.63
2018-07-02T01:42:31.611Z,2.27
2018-07-02T01:45:00.653Z,1.97
2018-07-02T01:47:29.659Z,2.37
2018-07-02T01:49:58.679Z,1.57
2018-07-02T01:52:27.839Z,1.70
2018-07-02T01:54:56.883Z,2.00
2018-07-02T01:57:25.932Z,1.70
2018-07-02T01:59:54.967Z,1.90
2018-07-02T02:02:24.964Z,2.00
2018-07-02T02:04:53.982Z,2.00
2018-07-02T02:07:23.465Z,2.10
2018-07-02T02:09:52.747Z,1.83
2018-07-02T02:12:21.955Z,1.83
2018-07-02T02:14:50.992Z,1.63
2018-07-02T02:17:20.051Z,1.70
2018-07-02T02:19:49.063Z,1.87
2018-07-02T02:22:18.063Z,1.73
2018-07-02T02:24:46.795Z,1.77
2018-07-02T02:27:15.703Z,2.00
2018-07-02T02:29:44.745Z,2.00
2018-07-02T02:32:13.768Z,2.10
2018-07-02T02:34:42.912Z,1.73
2018-07-02T02:37:11.931Z,1.90
2018-07-02T02:39:40.955Z,1.93
2018-07-02T02:42:09.982Z,1.97
2018-07-02T02:44:39.049Z,1.87
2018-07-02T02:47:08.069Z,2.00
2018-07-02T02:49:37.112Z,2.13
2018-07-02T02:52:06.474Z,1.90
2018-07-02T02:54:35.516Z,2.10
2018-07-02T02:57:04.536Z,1.90
2018-07-02T02:59:34.456Z,1.90
2018-07-02T03:02:03.485Z,2.20
2018-07-02T03:04:32.548Z,1.90
2018-07-02T03:07:02.378Z,2.07
2018-07-02T03:09:31.419Z,2.00
2018-07-02T03:12:00.443Z,1.80
2018-07-02T03:14:29.684Z,1.97
2018-07-02T03:16:58.722Z,2.17
2018-07-02T03:19:27.632Z,1.90
2018-07-02T03:21:56.548Z,1.77
2018-07-02T03:24:25.583Z,2.03
2018-07-02T03:26:54.308Z,1.90
2018-07-02T03:29:23.227Z,1.80
2018-07-02T03:31:52.263Z,1.90
2018-07-02T03:34:21.425Z,1.87
2018-07-02T03:36:50.411Z,2.00
2018-07-02T03:39:19.480Z,2.00
2018-07-02T03:41:48.487Z,2.00
2018-07-02T03:46:52.847Z,2.07
2018-07-02T03:49:21.890Z,2.17
2018-07-02T03:51:50.570Z,2.00
2018-07-02T03:54:19.502Z,2.07
2018-07-02T03:56:48.553Z,2.00
2018-07-02T03:59:17.568Z,2.03
2018-07-02T04:01:46.614Z,2.10
2018-07-02T04:04:15.635Z,2.27
2018-07-02T04:06:44.690Z,2.00
2018-07-02T04:09:14.407Z,1.93
2018-07-02T04:11:43.579Z,2.00
2018-07-02T04:14:12.579Z,1.97
2018-07-02T04:16:42.090Z,2.40
2018-07-02T04:19:12.234Z,1.93
2018-07-02T04:21:43.479Z,2.00
2018-07-02T04:24:12.590Z,2.07
2018-07-02T04:26:42.138Z,2.10
2018-07-02T04:29:11.487Z,2.10
2018-07-02T04:31:40.503Z,2.37
2018-07-02T04:34:09.535Z,2.40
2018-07-02T04:36:38.518Z,2.13
2018-07-02T04:39:08.483Z,2.40
2018-07-02T04:41:38.131Z,2.13
2018-07-02T04:44:07.631Z,1.97
2018-07-02T04:46:36.804Z,1.67
2018-07-02T04:49:06.177Z,2.03
2018-07-02T04:51:35.172Z,1.93
2018-07-02T04:54:04.217Z,2.20
2018-07-02T04:56:33.246Z,2.40
2018-07-02T04:59:02.266Z,2.17
2018-07-02T05:01:31.295Z,2.37
2018-07-02T05:04:00.296Z,2.10
2018-07-02T05:06:29.307Z,2.17
2018-07-02T05:08:58.363Z,2.40
2018-07-02T05:11:27.388Z,1.90
2018-07-02T05:13:56.401Z,2.10
2018-07-02T05:16:25.440Z,1.87
2018-07-02T05:18:54.460Z,2.20
2018-07-02T05:21:23.468Z,2.10
2018-07-02T05:23:52.543Z,2.13
2018-07-02T05:26:21.559Z,1.90
2018-07-02T05:28:50.787Z,1.97
2018-07-02T05:31:19.823Z,2.40
2018-07-02T05:33:48.844Z,2.13
2018-07-02T05:36:17.860Z,2.37
2018-07-02T05:38:46.883Z,2.40
2018-07-02T05:41:15.899Z,2.20
2018-07-02T05:43:44.935Z,2.80
2018-07-02T05:46:13.963Z,2.13
2018-07-02T05:48:42.987Z,2.70
2018-07-02T05:51:12.015Z,2.03
2018-07-02T05:53:41.071Z,3.00
2018-07-02T05:56:10.088Z,2.30
2018-07-02T05:58:39.088Z,2.17
2018-07-02T06:01:08.159Z,2.03
2018-07-02T06:03:37.179Z,2.47
2018-07-02T06:06:06.255Z,2.20
2018-07-02T06:08:35.367Z,2.03
2018-07-02T06:11:04.463Z,1.77
2018-07-02T06:13:33.464Z,2.20
2018-07-02T06:16:02.643Z,2.27
2018-07-02T06:18:31.647Z,2.07
2018-07-02T06:21:00.857Z,1.90
2018-07-02T06:23:30.094Z,1.80
2018-07-02T06:25:59.244Z,2.00
2018-07-02T06:28:28.280Z,2.20
2018-07-02T06:30:57.293Z,2.17
2018-07-02T06:33:26.303Z,1.67
2018-07-02T06:35:55.335Z,2.03
2018-07-02T06:38:24.339Z,1.87
2018-07-02T06:40:53.461Z,1.80
2018-07-02T06:43:22.511Z,1.70
2018-07-02T06:45:51.556Z,1.90
2018-07-02T06:48:20.575Z,1.90
2018-07-02T06:50:49.608Z,2.13
2018-07-02T06:53:18.659Z,1.60
2018-07-02T06:55:47.941Z,1.80
2018-07-02T06:58:17.033Z,1.93
2018-07-02T07:00:46.068Z,2.10
2018-07-02T07:03:15.087Z,1.60
2018-07-02T07:05:44.126Z,2.10
2018-07-02T07:08:13.248Z,2.50
2018-07-02T07:10:42.288Z,1.97
2018-07-02T07:13:11.743Z,1.80
2018-07-02T07:15:40.783Z,2.00
2018-07-02T07:18:09.833Z,1.87
2018-07-02T07:20:38.877Z,1.80
2018-07-02T07:23:07.575Z,2.10
2018-07-02T07:25:36.559Z,1.93
2018-07-02T07:28:05.626Z,1.87
2018-07-02T07:30:34.640Z,1.87
2018-07-02T07:33:03.728Z,2.03
2018-07-02T07:35:32.731Z,1.30
2018-07-02T07:38:01.782Z,1.37
2018-07-02T07:40:30.875Z,2.03
2018-07-02T07:42:59.896Z,2.00
2018-07-02T07:45:29.053Z,1.70
2018-07-02T07:47:58.068Z,1.47
2018-07-02T07:50:27.099Z,1.53
2018-07-02T07:52:56.143Z,1.70
2018-07-02T07:55:25.203Z,1.87
2018-07-02T07:57:54.266Z,1.90
2018-07-02T08:00:23.748Z,1.57
2018-07-02T08:02:52.784Z,2.20
2018-07-02T08:05:21.861Z,1.20
2018-07-02T08:07:50.879Z,1.23
2018-07-02T08:10:19.935Z,1.30
2018-07-02T08:12:49.079Z,1.33
2018-07-02T08:15:18.128Z,1.00
2018-07-02T08:17:47.162Z,1.23
2018-07-02T08:20:16.159Z,1.20
2018-07-02T08:22:45.247Z,1.53
2018-07-02T08:25:14.368Z,1.40
2018-07-02T08:27:43.597Z,1.20
2018-07-02T08:30:12.604Z,1.40
2018-07-02T08:32:41.647Z,1.10
2018-07-02T08:35:10.708Z,1.27
2018-07-02T08:37:39.792Z,1.30
2018-07-02T08:40:08.836Z,1.10
2018-07-02T08:42:37.860Z,1.20
2018-07-02T08:45:08.038Z,1.40
2018-07-02T08:47:36.750Z,0.97
2018-07-02T08:50:06.008Z,0.97
2018-07-02T08:52:35.193Z,1.13
2018-07-02T08:55:04.751Z,1.00
2018-07-02T08:57:33.808Z,1.00
2018-07-02T09:00:02.904Z,1.37
2018-07-02T09:02:31.931Z,1.83
2018-07-02T09:05:01.088Z,1.27
2018-07-02T09:07:30.136Z,1.17
2018-07-02T09:09:58.840Z,1.40
2018-07-02T09:12:27.472Z,1.10
2018-07-02T09:14:56.446Z,1.20
2018-07-02T09:17:25.480Z,1.10
2018-07-02T09:19:54.496Z,1.53
2018-07-02T09:22:23.697Z,1.03
2018-07-02T09:24:52.738Z,1.20
2018-07-02T09:27:21.788Z,1.20
2018-07-02T09:29:50.490Z,1.40
2018-07-02T09:32:19.457Z,1.40
2018-07-02T09:34:48.487Z,1.00
2018-07-02T09:37:17.527Z,1.40
2018-07-02T09:39:46.546Z,1.30
2018-07-02T09:42:15.701Z,1.03
2018-07-02T09:44:44.720Z,1.00
2018-07-02T09:47:13.791Z,1.03
2018-07-02T09:49:43.295Z,1.03
2018-07-02T09:52:12.324Z,1.17
2018-07-02T09:54:41.387Z,1.40
2018-07-02T09:57:10.404Z,1.27
2018-07-02T09:59:39.430Z,1.30
2018-07-02T10:02:08.449Z,1.40
2018-07-02T10:04:37.635Z,1.00
2018-07-02T10:07:06.757Z,1.00
2018-07-02T10:09:36.088Z,1.27
2018-07-02T10:12:05.209Z,1.40
2018-07-02T10:14:34.487Z,1.30
2018-07-02T10:17:03.576Z,1.43
2018-07-02T10:19:32.597Z,1.30
2018-07-02T10:22:01.652Z,1.00
2018-07-02T10:24:30.683Z,1.00
2018-07-02T10:26:59.810Z,1.20
2018-07-02T10:29:28.859Z,1.20
2018-07-02T10:31:57.840Z,1.20
2018-07-02T10:34:26.860Z,1.30
2018-07-02T10:36:56.028Z,1.20
2018-07-02T10:39:25.052Z,1.10
2018-07-02T10:41:54.135Z,1.63
2018-07-02T10:44:23.623Z,1.20
2018-07-02T10:46:52.947Z,1.07
2018-07-02T10:49:22.332Z,1.20
2018-07-02T10:51:51.356Z,1.00
2018-07-02T10:54:20.395Z,1.00
2018-07-02T10:56:49.437Z,1.37
2018-07-02T10:59:18.443Z,1.10
2018-07-02T11:01:47.507Z,1.17
2018-07-02T11:04:16.587Z,1.70
2018-07-02T11:06:45.746Z,1.15
2018-07-02T11:09:14.800Z,1.40
2018-07-02T11:11:43.816Z,1.52
2018-07-02T11:14:12.873Z,1.70
2018-07-02T11:16:41.920Z,1.47
2018-07-02T11:19:10.943Z,1.47
2018-07-02T11:21:40.331Z,1.40
2018-07-02T11:24:09.434Z,1.30
2018-07-02T11:26:38.457Z,1.60
2018-07-02T11:29:07.497Z,1.47
2018-07-02T11:31:36.560Z,1.32
2018-07-02T11:34:05.656Z,1.80
2018-07-02T11:36:34.691Z,1.50
2018-07-02T11:39:04.536Z,1.30
2018-07-02T11:41:33.485Z,2.40
2018-07-02T11:44:02.543Z,1.70
2018-07-02T11:46:32.194Z,1.52
2018-07-02T11:49:01.395Z,2.03
2018-07-02T11:51:30.623Z,2.00
2018-07-02T11:53:59.656Z,1.90
2018-07-02T11:56:29.033Z,1.85
2018-07-02T11:58:58.280Z,1.60
2018-07-02T12:01:27.288Z,1.70
2018-07-02T12:03:56.332Z,1.50
2018-07-02T12:06:25.384Z,1.07
2018-07-02T12:08:54.380Z,1.30
2018-07-02T12:11:23.420Z,1.30
2018-07-02T12:13:52.468Z,1.30
2018-07-02T12:16:21.623Z,1.67
2018-07-02T12:18:50.615Z,1.27
2018-07-02T12:21:19.618Z,1.55
2018-07-02T12:23:49.017Z,1.32
2018-07-02T12:26:18.114Z,1.60
2018-07-02T12:28:47.034Z,1.55
2018-07-02T12:31:16.496Z,1.30
2018-07-02T12:33:45.544Z,1.52
2018-07-02T12:36:14.580Z,1.45
2018-07-02T12:38:43.666Z,1.40
2018-07-02T12:41:12.767Z,1.50
2018-07-02T12:43:41.779Z,1.50
2018-07-02T12:46:11.135Z,1.45
2018-07-02T12:48:40.018Z,1.30
2018-07-02T12:51:08.938Z,1.40
2018-07-02T12:53:37.965Z,1.55
2018-07-02T12:56:07.074Z,1.70
2018-07-02T12:58:36.124Z,1.60
2018-07-02T13:01:05.149Z,1.77
2018-07-02T13:03:34.188Z,1.45
2018-07-02T13:06:03.239Z,1.60
2018-07-02T13:08:32.247Z,1.30
2018-07-02T13:11:01.272Z,1.20
2018-07-02T13:13:30.394Z,1.37
2018-07-02T13:15:59.403Z,1.30
2018-07-02T13:18:28.401Z,1.20
2018-07-02T13:20:57.460Z,1.10
2018-07-02T13:23:26.487Z,1.62
2018-07-02T13:25:55.551Z,1.30
2018-07-02T13:28:24.984Z,1.00
2018-07-02T13:30:53.670Z,1.10
2018-07-02T13:33:22.971Z,0.95
2018-07-02T13:35:51.988Z,1.05
2018-07-02T13:38:21.063Z,1.00
2018-07-02T13:40:50.071Z,1.00
2018-07-02T13:43:19.095Z,1.00
2018-07-02T13:45:48.436Z,1.40
2018-07-02T13:48:17.783Z,1.35
2018-07-02T13:50:46.930Z,1.50
2018-07-02T13:53:15.989Z,1.30
2018-07-02T13:55:45.622Z,1.62
2018-07-02T13:58:14.697Z,1.40
2018-07-02T14:00:43.717Z,1.20
2018-07-02T14:03:12.782Z,1.50
2018-07-02T14:05:41.802Z,1.92
2018-07-02T14:08:10.804Z,1.40
2018-07-02T14:10:39.856Z,1.27
2018-07-02T14:13:08.933Z,1.12
2018-07-02T14:15:37.975Z,1.77
2018-07-02T14:18:07.016Z,1.35
2018-07-02T14:20:36.071Z,1.50
2018-07-02T14:23:05.312Z,1.60
2018-07-02T14:25:34.043Z,1.15
2018-07-02T14:28:03.254Z,1.30
2018-07-02T14:30:32.318Z,1.32
2018-07-02T14:33:02.100Z,1.17
2018-07-02T14:35:31.355Z,1.57
2018-07-02T14:38:01.277Z,1.20
2018-07-02T14:40:30.400Z,1.33
2018-07-02T14:43:00.356Z,1.30
2018-07-02T14:45:29.881Z,1.60
2018-07-02T14:47:59.495Z,1.40
2018-07-02T14:50:28.603Z,1.15
2018-07-02T14:52:57.807Z,1.30
2018-07-02T14:55:27.092Z,1.30
2018-07-02T14:57:56.123Z,1.10
2018-07-02T15:00:25.237Z,1.00
2018-07-02T15:02:54.275Z,1.05
2018-07-02T15:05:23.315Z,0.90
2018-07-02T15:07:52.335Z,1.20
2018-07-02T15:10:21.380Z,1.22
2018-07-02T15:12:50.376Z,1.07
2018-07-02T15:15:19.656Z,1.07
2018-07-02T15:17:48.678Z,1.25
2018-07-02T15:20:17.723Z,1.10
2018-07-02T15:22:46.823Z,1.00
2018-07-02T15:25:15.851Z,0.95
2018-07-02T15:27:44.843Z,1.50
2018-07-02T15:30:13.864Z,1.10
2018-07-02T15:32:42.900Z,1.07
2018-07-02T15:35:11.943Z,1.60
2018-07-02T15:37:40.937Z,1.00
2018-07-02T15:40:09.986Z,1.27
2018-07-02T15:42:39.035Z,1.07
2018-07-02T15:45:07.768Z,1.30
2018-07-02T15:47:36.741Z,1.30
2018-07-02T15:50:06.024Z,1.20
2018-07-02T15:52:35.164Z,1.50
2018-07-02T15:55:04.107Z,1.37
2018-07-02T15:57:33.151Z,1.43
2018-07-02T16:00:02.187Z,1.20
2018-07-02T16:02:31.351Z,1.37
2018-07-02T16:05:00.524Z,1.27
2018-07-02T16:07:29.769Z,1.03
2018-07-02T16:10:05.251Z,1.13
2018-07-02T16:12:34.403Z,1.27
2018-07-02T16:15:03.543Z,0.97
2018-07-02T16:17:32.545Z,1.60
2018-07-02T16:20:01.456Z,1.53
2018-07-02T16:22:30.550Z,1.20
2018-07-02T16:24:59.407Z,1.07
2018-07-02T16:27:28.467Z,1.03
2018-07-02T16:29:57.495Z,1.20
2018-07-02T16:32:26.496Z,1.00
2018-07-02T16:34:55.540Z,1.40
2018-07-02T16:37:24.583Z,1.40
2018-07-02T16:39:53.631Z,0.97
2018-07-02T16:42:22.682Z,1.20
2018-07-02T16:44:51.802Z,1.00
2018-07-02T16:47:20.827Z,1.30
2018-07-02T16:49:49.860Z,1.13
2018-07-02T16:52:18.895Z,1.27
2018-07-02T16:54:47.993Z,1.20
2018-07-02T16:57:16.991Z,1.23
2018-07-02T16:59:46.044Z,1.30
2018-07-02T17:02:15.199Z,1.23
2018-07-02T17:04:44.252Z,1.10
2018-07-02T17:07:13.628Z,1.00
2018-07-02T17:09:42.640Z,1.00
2018-07-02T17:12:11.387Z,1.10
2018-07-02T17:14:40.415Z,1.10
2018-07-02T17:17:09.375Z,1.07
2018-07-02T17:19:38.356Z,0.80
2018-07-02T17:22:07.751Z,0.90
2018-07-02T17:24:36.792Z,1.20
2018-07-02T17:27:05.922Z,1.10
2018-07-02T17:32:09.935Z,1.27
2018-07-02T17:34:39.060Z,1.10
2018-07-02T17:37:08.050Z,1.10
2018-07-02T17:39:36.972Z,1.50
2018-07-02T17:42:06.247Z,1.40
2018-07-02T17:44:35.200Z,1.07
2018-07-02T17:47:04.271Z,1.57
2018-07-02T17:49:33.320Z,1.23
2018-07-02T17:52:02.069Z,1.27
2018-07-02T17:54:31.015Z,1.10
2018-07-02T17:57:00.064Z,1.23
2018-07-02T17:59:29.306Z,0.90
2018-07-02T18:01:57.970Z,1.03
2018-07-02T18:04:26.916Z,1.20
2018-07-02T18:06:55.950Z,0.90
2018-07-02T18:09:24.991Z,1.50
2018-07-02T18:11:54.024Z,1.37
2018-07-02T18:14:23.142Z,1.40
2018-07-02T18:16:52.216Z,1.30
2018-07-02T18:19:27.642Z,1.70
2018-07-02T18:21:56.698Z,1.17
2018-07-02T18:24:25.422Z,1.70
2018-07-02T18:26:54.421Z,1.30
2018-07-02T18:29:23.066Z,1.20
2018-07-02T18:31:52.051Z,1.30
2018-07-02T18:34:21.088Z,1.10
2018-07-02T18:36:50.107Z,1.10
2018-07-02T18:39:19.150Z,1.10
2018-07-02T18:41:48.183Z,1.60
2018-07-02T18:44:17.275Z,1.20
2018-07-02T18:46:45.998Z,1.23
2018-07-02T18:49:14.647Z,1.40
2018-07-02T18:51:43.632Z,1.37
2018-07-02T18:54:13.012Z,1.00
2018-07-02T18:56:41.748Z,1.10
2018-07-02T18:59:10.384Z,1.20
2018-07-02T19:01:39.386Z,1.40
2018-07-02T19:04:08.098Z,1.10
2018-07-02T19:06:37.116Z,1.13
2018-07-02T19:09:07.424Z,1.10
2018-07-02T19:11:36.405Z,1.43
2018-07-02T19:14:06.159Z,0.90
2018-07-02T19:16:34.943Z,0.93
2018-07-02T19:19:04.048Z,1.23
2018-07-02T19:21:33.128Z,1.00
2018-07-02T19:24:02.181Z,1.20
2018-07-02T19:26:31.198Z,1.20
2018-07-02T19:28:59.915Z,1.00
2018-07-02T19:31:28.575Z,1.47
2018-07-02T19:33:57.503Z,1.23
2018-07-02T19:36:26.236Z,1.03
2018-07-02T19:38:55.173Z,1.40
2018-07-02T19:41:23.874Z,1.17
2018-07-02T19:43:52.872Z,1.20
2018-07-02T19:46:21.580Z,0.97
2018-07-02T19:48:50.223Z,1.10
2018-07-02T19:51:18.881Z,1.13
2018-07-02T19:53:47.883Z,1.40
2018-07-02T19:56:16.910Z,1.40
2018-07-02T19:58:45.633Z,1.40
2018-07-02T20:01:14.599Z,1.00
2018-07-02T20:03:43.643Z,1.43
2018-07-02T20:06:12.683Z,1.97
2018-07-02T20:08:41.421Z,1.27
2018-07-02T20:11:10.352Z,1.17
2018-07-02T20:13:39.464Z,1.00
2018-07-02T20:16:09.104Z,0.80
2018-07-02T20:18:38.323Z,1.30
2018-07-02T20:21:07.400Z,1.13
2018-07-02T20:23:36.736Z,1.30
2018-07-02T20:26:05.801Z,1.30
2018-07-02T20:28:34.952Z,1.20
2018-07-02T20:31:04.007Z,1.50
2018-07-02T20:33:33.085Z,1.17
2018-07-02T20:36:02.127Z,1.50
2018-07-02T20:38:31.151Z,1.10
2018-07-02T20:41:00.209Z,1.17
2018-07-02T20:43:29.262Z,1.20
2018-07-02T20:45:58.318Z,1.17
2018-07-02T20:48:27.903Z,1.47
2018-07-02T20:50:56.947Z,1.00
2018-07-02T20:53:26.045Z,1.13
2018-07-02T20:55:55.102Z,1.07
2018-07-02T20:58:24.118Z,1.33
2018-07-02T21:00:53.179Z,1.07
2018-07-02T21:03:23.191Z,1.30
2018-07-02T21:05:52.267Z,1.53
2018-07-02T21:08:21.336Z,1.13
2018-07-02T21:10:50.375Z,1.10
2018-07-02T21:13:19.419Z,1.30
2018-07-02T21:15:48.540Z,1.00
2018-07-02T21:18:17.538Z,1.50
2018-07-02T21:20:46.587Z,1.20
2018-07-02T21:23:15.768Z,1.53
2018-07-02T21:25:44.797Z,1.40
2018-07-02T21:28:13.514Z,1.57
2018-07-02T21:30:42.478Z,1.00
2018-07-02T21:33:11.478Z,1.40
2018-07-02T21:35:40.680Z,1.47
2018-07-02T21:38:09.720Z,1.40
2018-07-02T21:40:38.767Z,1.40
2018-07-02T21:43:07.457Z,1.20
2018-07-02T21:45:36.071Z,1.50
2018-07-02T21:48:05.290Z,1.30
2018-07-02T21:50:34.315Z,1.40
2018-07-02T21:53:03.359Z,1.73
2018-07-02T21:55:32.383Z,1.67
2018-07-02T21:58:01.427Z,1.40
2018-07-02T22:00:35.089Z,1.20
2018-07-02T22:03:06.000Z,1.83
2018-07-02T22:05:35.036Z,1.47
2018-07-02T22:08:04.084Z,1.50
2018-07-02T22:10:33.145Z,1.63
2018-07-02T22:13:02.241Z,1.50
2018-07-02T22:15:31.303Z,1.50
2018-07-02T22:18:00.399Z,1.53
2018-07-02T22:20:29.419Z,1.50
2018-07-02T22:22:58.780Z,1.53
2018-07-02T22:25:27.823Z,1.77
2018-07-02T22:27:57.181Z,1.40
2018-07-02T22:30:32.664Z,1.70
2018-07-02T22:33:01.683Z,1.00
2018-07-02T22:35:30.384Z,1.70
2018-07-02T22:37:59.743Z,1.63
2018-07-02T22:40:28.795Z,2.20
2018-07-02T22:42:58.159Z,1.53
2018-07-02T22:45:27.203Z,1.20
2018-07-02T22:47:56.229Z,1.57
2018-07-02T22:50:31.508Z,1.80
2018-07-02T22:53:00.980Z,1.50
2018-07-02T22:55:30.157Z,1.70
2018-07-02T22:57:59.252Z,1.30
2018-07-02T23:00:28.293Z,1.50
2018-07-02T23:02:57.333Z,1.67
2018-07-02T23:05:26.375Z,1.60
2018-07-02T23:07:55.296Z,1.80
2018-07-02T23:10:24.214Z,1.23
2018-07-02T23:12:53.263Z,1.27
2018-07-02T23:15:22.511Z,1.50
2018-07-02T23:17:51.539Z,1.67
2018-07-02T23:20:20.585Z,1.50
2018-07-02T23:23:01.512Z,1.97
2018-07-02T23:25:30.913Z,1.60
2018-07-02T23:28:01.652Z,1.27
2018-07-02T23:30:31.913Z,2.13
2018-07-02T23:33:01.170Z,1.67
2018-07-02T23:35:30.269Z,1.73
2018-07-02T23:38:05.313Z,1.60
2018-07-02T23:40:34.260Z,1.80
2018-07-02T23:43:03.303Z,1.80
2018-07-02T23:45:32.396Z,1.93
2018-07-02T23:48:01.425Z,1.70
2018-07-02T23:50:30.442Z,2.03
2018-07-02T23:52:59.481Z,1.77
2018-07-02T23:55:28.543Z,1.53
2018-07-02T23:57:57.903Z,1.60
